HLU weather

Nesson Airport
Houailou, New Caledonia

Public forecast

Using degrees Celsius for public forecast. Weather courtesy of forecast.io.

Closest aviation weather report (METAR) to Nesson Airport

Report is more than 6 hours old.

Closest report is Touho Airport, 34.4 nm (63.8 km) NW. Retrieved 2010/10/01 08:00 UTC (9 years ago):

NWWU 010800Z AUTO 12008KT 090V160 9999NDV FEW020/// 26/22 Q1015

Closest aviation forecast (TAF) to Nesson Airport

Forecast is more than 12 hours old.

Closest forecast is Touho Airport, 34.4 nm (63.8 km) NW. Retrieved 2020/02/18 18:00 UTC (22 hours ago):

TAF NWWU 181700Z 1818/1918 18008KT 9999 BKN020 BKN040 TEMPO 1818/1824 4000 SHRA BKN010 FEW017TCU FM190100 11010KT 9999 SCT025 BKN060 PROB30 TEMPO 1906/1917 SHRA BKN012 FEW020TCU